sensor_id;sensor_type;location;lat;lon;timestamp;P1;durP1;ratioP1;P2;durP2;ratioP2
13085;SDS011;6609;49.882;8.664;2023-04-15T00:01:37;13.53;;;3.03;;
13085;SDS011;6609;49.882;8.664;2023-04-15T00:04:04;12.23;;;3.33;;
13085;SDS011;6609;49.882;8.664;2023-04-15T00:06:31;7.03;;;2.50;;
13085;SDS011;6609;49.882;8.664;2023-04-15T00:08:58;10.27;;;3.50;;
13085;SDS011;6609;49.882;8.664;2023-04-15T00:11:25;8.17;;;3.20;;
13085;SDS011;6609;49.882;8.664;2023-04-15T00:13:53;9.33;;;3.17;;
13085;SDS011;6609;49.882;8.664;2023-04-15T00:16:20;10.47;;;3.50;;
13085;SDS011;6609;49.882;8.664;2023-04-15T00:18:47;11.23;;;4.00;;
13085;SDS011;6609;49.882;8.664;2023-04-15T00:21:14;11.07;;;3.47;;
13085;SDS011;6609;49.882;8.664;2023-04-15T00:23:41;13.93;;;3.37;;
13085;SDS011;6609;49.882;8.664;2023-04-15T00:26:08;13.67;;;4.80;;
13085;SDS011;6609;49.882;8.664;2023-04-15T00:28:35;11.00;;;3.27;;
13085;SDS011;6609;49.882;8.664;2023-04-15T00:31:03;10.90;;;2.97;;
13085;SDS011;6609;49.882;8.664;2023-04-15T00:33:30;9.73;;;3.00;;
13085;SDS011;6609;49.882;8.664;2023-04-15T00:35:57;8.00;;;3.73;;
13085;SDS011;6609;49.882;8.664;2023-04-15T00:38:24;11.50;;;3.40;;
13085;SDS011;6609;49.882;8.664;2023-04-15T00:40:52;13.00;;;3.33;;
13085;SDS011;6609;49.882;8.664;2023-04-15T00:43:19;11.40;;;3.30;;
13085;SDS011;6609;49.882;8.664;2023-04-15T00:45:46;11.37;;;3.50;;
13085;SDS011;6609;49.882;8.664;2023-04-15T00:48:14;13.83;;;3.70;;
13085;SDS011;6609;49.882;8.664;2023-04-15T00:50:41;8.00;;;3.33;;
13085;SDS011;6609;49.882;8.664;2023-04-15T00:53:08;13.23;;;3.40;;
13085;SDS011;6609;49.882;8.664;2023-04-15T00:55:36;10.13;;;3.07;;
13085;SDS011;6609;49.882;8.664;2023-04-15T00:58:03;12.70;;;3.93;;
13085;SDS011;6609;49.882;8.664;2023-04-15T01:00:30;9.97;;;3.00;;
13085;SDS011;6609;49.882;8.664;2023-04-15T01:02:57;13.77;;;3.13;;
13085;SDS011;6609;49.882;8.664;2023-04-15T01:05:26;12.77;;;3.77;;
13085;SDS011;6609;49.882;8.664;2023-04-15T01:07:54;11.73;;;3.60;;
13085;SDS011;6609;49.882;8.664;2023-04-15T01:10:21;12.93;;;3.97;;
13085;SDS011;6609;49.882;8.664;2023-04-15T01:12:47;10.30;;;3.40;;
13085;SDS011;6609;49.882;8.664;2023-04-15T01:15:15;10.63;;;3.30;;
13085;SDS011;6609;49.882;8.664;2023-04-15T01:17:42;6.90;;;2.50;;
13085;SDS011;6609;49.882;8.664;2023-04-15T01:20:09;12.60;;;3.17;;
13085;SDS011;6609;49.882;8.664;2023-04-15T01:22:38;7.67;;;3.13;;
13085;SDS011;6609;49.882;8.664;2023-04-15T01:25:05;7.77;;;3.77;;
13085;SDS011;6609;49.882;8.664;2023-04-15T01:27:38;10.47;;;3.10;;
13085;SDS011;6609;49.882;8.664;2023-04-15T01:30:06;7.33;;;3.13;;
13085;SDS011;6609;49.882;8.664;2023-04-15T01:32:34;8.60;;;3.27;;
13085;SDS011;6609;49.882;8.664;2023-04-15T01:35:01;8.30;;;3.67;;
13085;SDS011;6609;49.882;8.664;2023-04-15T01:37:28;13.07;;;4.23;;
13085;SDS011;6609;49.882;8.664;2023-04-15T01:39:56;8.43;;;3.37;;
13085;SDS011;6609;49.882;8.664;2023-04-15T01:42:23;12.23;;;3.63;;
13085;SDS011;6609;49.882;8.664;2023-04-15T01:44:53;6.27;;;2.87;;
13085;SDS011;6609;49.882;8.664;2023-04-15T01:47:20;10.77;;;3.37;;
13085;SDS011;6609;49.882;8.664;2023-04-15T01:49:47;8.60;;;3.63;;
13085;SDS011;6609;49.882;8.664;2023-04-15T01:52:14;13.57;;;3.23;;
13085;SDS011;6609;49.882;8.664;2023-04-15T01:54:41;13.17;;;3.00;;
13085;SDS011;6609;49.882;8.664;2023-04-15T01:57:08;11.70;;;4.00;;
13085;SDS011;6609;49.882;8.664;2023-04-15T01:59:35;8.07;;;2.87;;
13085;SDS011;6609;49.882;8.664;2023-04-15T02:02:03;8.13;;;3.57;;
13085;SDS011;6609;49.882;8.664;2023-04-15T02:04:30;7.37;;;2.73;;
13085;SDS011;6609;49.882;8.664;2023-04-15T02:06:58;7.53;;;3.43;;
13085;SDS011;6609;49.882;8.664;2023-04-15T02:09:25;7.00;;;3.23;;
13085;SDS011;6609;49.882;8.664;2023-04-15T02:11:52;9.63;;;3.27;;
13085;SDS011;6609;49.882;8.664;2023-04-15T02:14:19;12.67;;;3.70;;
13085;SDS011;6609;49.882;8.664;2023-04-15T02:16:46;7.67;;;3.00;;
13085;SDS011;6609;49.882;8.664;2023-04-15T02:19:14;6.80;;;3.27;;
13085;SDS011;6609;49.882;8.664;2023-04-15T02:21:41;7.00;;;3.17;;
13085;SDS011;6609;49.882;8.664;2023-04-15T02:24:08;9.43;;;3.43;;
13085;SDS011;6609;49.882;8.664;2023-04-15T02:26:36;8.17;;;3.30;;
13085;SDS011;6609;49.882;8.664;2023-04-15T02:29:03;7.43;;;3.20;;
13085;SDS011;6609;49.882;8.664;2023-04-15T02:31:30;12.07;;;3.80;;
13085;SDS011;6609;49.882;8.664;2023-04-15T02:34:00;10.70;;;3.37;;
13085;SDS011;6609;49.882;8.664;2023-04-15T02:36:29;9.10;;;3.43;;
13085;SDS011;6609;49.882;8.664;2023-04-15T02:38:57;9.83;;;3.83;;
13085;SDS011;6609;49.882;8.664;2023-04-15T02:41:24;9.63;;;3.37;;
13085;SDS011;6609;49.882;8.664;2023-04-15T02:43:52;10.07;;;3.30;;
13085;SDS011;6609;49.882;8.664;2023-04-15T02:46:19;10.50;;;3.53;;
13085;SDS011;6609;49.882;8.664;2023-04-15T02:48:46;9.33;;;4.07;;
13085;SDS011;6609;49.882;8.664;2023-04-15T02:51:14;8.40;;;3.53;;
13085;SDS011;6609;49.882;8.664;2023-04-15T02:53:45;7.50;;;3.17;;
13085;SDS011;6609;49.882;8.664;2023-04-15T02:56:12;12.17;;;4.17;;
13085;SDS011;6609;49.882;8.664;2023-04-15T02:58:41;12.53;;;4.20;;
13085;SDS011;6609;49.882;8.664;2023-04-15T03:01:09;10.37;;;3.53;;
13085;SDS011;6609;49.882;8.664;2023-04-15T03:03:35;11.57;;;3.73;;
13085;SDS011;6609;49.882;8.664;2023-04-15T03:06:02;7.47;;;3.20;;
13085;SDS011;6609;49.882;8.664;2023-04-15T03:08:29;12.47;;;3.50;;
13085;SDS011;6609;49.882;8.664;2023-04-15T03:10:58;11.90;;;3.97;;
13085;SDS011;6609;49.882;8.664;2023-04-15T03:13:26;9.33;;;4.13;;
13085;SDS011;6609;49.882;8.664;2023-04-15T03:15:53;11.27;;;3.70;;
13085;SDS011;6609;49.882;8.664;2023-04-15T03:18:20;5.83;;;3.20;;
13085;SDS011;6609;49.882;8.664;2023-04-15T03:20:47;9.17;;;3.83;;
13085;SDS011;6609;49.882;8.664;2023-04-15T03:23:14;10.90;;;4.13;;
13085;SDS011;6609;49.882;8.664;2023-04-15T03:25:41;13.87;;;4.27;;
13085;SDS011;6609;49.882;8.664;2023-04-15T03:28:10;9.63;;;4.13;;
13085;SDS011;6609;49.882;8.664;2023-04-15T03:30:37;12.90;;;3.63;;
13085;SDS011;6609;49.882;8.664;2023-04-15T03:33:04;15.23;;;4.30;;
13085;SDS011;6609;49.882;8.664;2023-04-15T03:35:30;13.47;;;4.57;;
13085;SDS011;6609;49.882;8.664;2023-04-15T03:37:58;10.50;;;3.67;;
13085;SDS011;6609;49.882;8.664;2023-04-15T03:40:25;11.00;;;3.97;;
13085;SDS011;6609;49.882;8.664;2023-04-15T03:42:51;8.17;;;3.50;;
13085;SDS011;6609;49.882;8.664;2023-04-15T03:45:19;12.00;;;4.10;;
13085;SDS011;6609;49.882;8.664;2023-04-15T03:47:46;7.93;;;3.37;;
13085;SDS011;6609;49.882;8.664;2023-04-15T03:50:14;10.43;;;3.70;;
13085;SDS011;6609;49.882;8.664;2023-04-15T03:52:41;9.73;;;3.43;;
13085;SDS011;6609;49.882;8.664;2023-04-15T03:55:08;14.23;;;3.83;;
13085;SDS011;6609;49.882;8.664;2023-04-15T03:57:35;12.37;;;3.70;;
13085;SDS011;6609;49.882;8.664;2023-04-15T04:00:04;17.60;;;4.57;;
13085;SDS011;6609;49.882;8.664;2023-04-15T04:02:32;12.03;;;3.77;;
13085;SDS011;6609;49.882;8.664;2023-04-15T04:04:59;11.63;;;3.60;;
13085;SDS011;6609;49.882;8.664;2023-04-15T04:07:26;13.97;;;5.00;;
13085;SDS011;6609;49.882;8.664;2023-04-15T04:09:54;15.20;;;4.07;;
13085;SDS011;6609;49.882;8.664;2023-04-15T04:12:21;14.67;;;4.40;;
13085;SDS011;6609;49.882;8.664;2023-04-15T04:14:47;12.13;;;3.73;;
13085;SDS011;6609;49.882;8.664;2023-04-15T04:17:14;16.17;;;4.70;;
13085;SDS011;6609;49.882;8.664;2023-04-15T04:19:43;11.60;;;4.10;;
13085;SDS011;6609;49.882;8.664;2023-04-15T04:22:10;16.23;;;5.23;;
13085;SDS011;6609;49.882;8.664;2023-04-15T04:24:37;7.57;;;3.40;;
13085;SDS011;6609;49.882;8.664;2023-04-15T04:27:04;11.13;;;4.27;;
13085;SDS011;6609;49.882;8.664;2023-04-15T04:29:31;14.93;;;4.40;;
13085;SDS011;6609;49.882;8.664;2023-04-15T04:31:58;12.43;;;4.23;;
13085;SDS011;6609;49.882;8.664;2023-04-15T04:34:25;10.83;;;3.87;;
13085;SDS011;6609;49.882;8.664;2023-04-15T04:36:53;24.40;;;6.20;;
13085;SDS011;6609;49.882;8.664;2023-04-15T04:39:20;10.37;;;3.33;;
13085;SDS011;6609;49.882;8.664;2023-04-15T04:41:48;10.77;;;3.50;;
13085;SDS011;6609;49.882;8.664;2023-04-15T04:44:16;12.00;;;4.27;;
13085;SDS011;6609;49.882;8.664;2023-04-15T04:46:43;9.37;;;3.73;;
13085;SDS011;6609;49.882;8.664;2023-04-15T04:49:10;16.87;;;4.40;;
13085;SDS011;6609;49.882;8.664;2023-04-15T04:51:37;12.43;;;3.90;;
13085;SDS011;6609;49.882;8.664;2023-04-15T04:54:05;11.07;;;3.87;;
13085;SDS011;6609;49.882;8.664;2023-04-15T04:56:32;10.70;;;3.30;;
13085;SDS011;6609;49.882;8.664;2023-04-15T04:58:59;11.37;;;4.40;;
13085;SDS011;6609;49.882;8.664;2023-04-15T05:01:26;8.57;;;3.07;;
13085;SDS011;6609;49.882;8.664;2023-04-15T05:03:53;13.83;;;4.30;;
13085;SDS011;6609;49.882;8.664;2023-04-15T05:06:21;10.83;;;3.80;;
13085;SDS011;6609;49.882;8.664;2023-04-15T05:08:48;10.07;;;4.43;;
13085;SDS011;6609;49.882;8.664;2023-04-15T05:11:16;11.83;;;4.87;;
13085;SDS011;6609;49.882;8.664;2023-04-15T05:13:43;10.63;;;4.50;;
13085;SDS011;6609;49.882;8.664;2023-04-15T05:16:10;11.93;;;4.93;;
13085;SDS011;6609;49.882;8.664;2023-04-15T05:18:37;9.57;;;4.07;;
13085;SDS011;6609;49.882;8.664;2023-04-15T05:21:04;13.60;;;4.10;;
13085;SDS011;6609;49.882;8.664;2023-04-15T05:23:31;10.30;;;3.97;;
13085;SDS011;6609;49.882;8.664;2023-04-15T05:25:58;9.53;;;4.23;;
13085;SDS011;6609;49.882;8.664;2023-04-15T05:28:27;14.07;;;5.10;;
13085;SDS011;6609;49.882;8.664;2023-04-15T05:30:54;16.23;;;4.77;;
13085;SDS011;6609;49.882;8.664;2023-04-15T05:33:21;9.70;;;3.53;;
13085;SDS011;6609;49.882;8.664;2023-04-15T05:35:48;13.40;;;4.47;;
13085;SDS011;6609;49.882;8.664;2023-04-15T05:38:15;11.57;;;4.37;;
13085;SDS011;6609;49.882;8.664;2023-04-15T05:40:42;10.57;;;3.77;;
13085;SDS011;6609;49.882;8.664;2023-04-15T05:43:09;12.67;;;4.20;;
13085;SDS011;6609;49.882;8.664;2023-04-15T05:45:38;15.90;;;5.60;;
13085;SDS011;6609;49.882;8.664;2023-04-15T05:48:04;11.33;;;4.20;;
13085;SDS011;6609;49.882;8.664;2023-04-15T05:50:32;9.23;;;3.80;;
13085;SDS011;6609;49.882;8.664;2023-04-15T05:53:00;13.43;;;4.50;;
13085;SDS011;6609;49.882;8.664;2023-04-15T05:55:27;10.10;;;4.13;;
13085;SDS011;6609;49.882;8.664;2023-04-15T05:57:54;13.77;;;4.60;;
13085;SDS011;6609;49.882;8.664;2023-04-15T06:00:21;7.77;;;3.73;;
13085;SDS011;6609;49.882;8.664;2023-04-15T06:02:50;15.63;;;4.43;;
13085;SDS011;6609;49.882;8.664;2023-04-15T06:05:17;13.07;;;3.63;;
13085;SDS011;6609;49.882;8.664;2023-04-15T06:07:44;10.40;;;4.10;;
13085;SDS011;6609;49.882;8.664;2023-04-15T06:10:11;16.30;;;4.67;;
13085;SDS011;6609;49.882;8.664;2023-04-15T06:12:38;14.53;;;4.00;;
13085;SDS011;6609;49.882;8.664;2023-04-15T06:15:06;12.00;;;4.73;;
13085;SDS011;6609;49.882;8.664;2023-04-15T06:17:34;9.57;;;3.87;;
13085;SDS011;6609;49.882;8.664;2023-04-15T06:20:02;13.40;;;4.20;;
13085;SDS011;6609;49.882;8.664;2023-04-15T06:22:30;10.10;;;4.50;;
13085;SDS011;6609;49.882;8.664;2023-04-15T06:24:57;10.87;;;4.40;;
13085;SDS011;6609;49.882;8.664;2023-04-15T06:27:24;9.00;;;4.47;;
13085;SDS011;6609;49.882;8.664;2023-04-15T06:29:51;13.80;;;4.70;;
13085;SDS011;6609;49.882;8.664;2023-04-15T06:32:18;13.83;;;4.27;;
13085;SDS011;6609;49.882;8.664;2023-04-15T06:34:45;12.30;;;4.67;;
13085;SDS011;6609;49.882;8.664;2023-04-15T06:37:13;9.57;;;4.33;;
13085;SDS011;6609;49.882;8.664;2023-04-15T06:39:40;9.13;;;4.80;;
13085;SDS011;6609;49.882;8.664;2023-04-15T06:42:08;9.97;;;4.93;;
13085;SDS011;6609;49.882;8.664;2023-04-15T06:44:36;8.33;;;4.80;;
13085;SDS011;6609;49.882;8.664;2023-04-15T06:47:03;9.37;;;4.50;;
13085;SDS011;6609;49.882;8.664;2023-04-15T06:49:30;9.60;;;5.33;;
13085;SDS011;6609;49.882;8.664;2023-04-15T06:51:57;13.63;;;5.83;;
13085;SDS011;6609;49.882;8.664;2023-04-15T06:54:26;9.03;;;4.20;;
13085;SDS011;6609;49.882;8.664;2023-04-15T06:56:53;12.27;;;4.33;;
13085;SDS011;6609;49.882;8.664;2023-04-15T06:59:20;6.20;;;3.70;;
13085;SDS011;6609;49.882;8.664;2023-04-15T07:01:48;8.50;;;4.77;;
13085;SDS011;6609;49.882;8.664;2023-04-15T07:04:15;9.37;;;4.47;;
13085;SDS011;6609;49.882;8.664;2023-04-15T07:06:43;8.63;;;4.13;;
13085;SDS011;6609;49.882;8.664;2023-04-15T07:09:10;13.50;;;6.13;;
13085;SDS011;6609;49.882;8.664;2023-04-15T07:11:38;11.50;;;4.90;;
13085;SDS011;6609;49.882;8.664;2023-04-15T07:14:05;9.50;;;4.77;;
13085;SDS011;6609;49.882;8.664;2023-04-15T07:16:32;8.03;;;5.00;;
13085;SDS011;6609;49.882;8.664;2023-04-15T07:18:59;12.50;;;5.03;;
13085;SDS011;6609;49.882;8.664;2023-04-15T07:21:26;8.43;;;4.97;;
13085;SDS011;6609;49.882;8.664;2023-04-15T07:23:53;8.23;;;4.87;;
13085;SDS011;6609;49.882;8.664;2023-04-15T07:26:20;7.53;;;4.27;;
13085;SDS011;6609;49.882;8.664;2023-04-15T07:28:49;12.10;;;5.53;;
13085;SDS011;6609;49.882;8.664;2023-04-15T07:31:16;9.73;;;5.13;;
13085;SDS011;6609;49.882;8.664;2023-04-15T07:33:42;11.27;;;5.10;;
13085;SDS011;6609;49.882;8.664;2023-04-15T07:36:10;9.93;;;5.03;;
13085;SDS011;6609;49.882;8.664;2023-04-15T07:38:37;13.23;;;6.00;;
13085;SDS011;6609;49.882;8.664;2023-04-15T07:41:04;12.20;;;5.33;;
13085;SDS011;6609;49.882;8.664;2023-04-15T07:43:31;6.83;;;4.60;;
13085;SDS011;6609;49.882;8.664;2023-04-15T07:45:59;9.00;;;5.40;;
13085;SDS011;6609;49.882;8.664;2023-04-15T07:48:26;8.70;;;4.93;;
13085;SDS011;6609;49.882;8.664;2023-04-15T07:50:52;8.20;;;5.30;;
13085;SDS011;6609;49.882;8.664;2023-04-15T07:53:19;7.23;;;4.93;;
13085;SDS011;6609;49.882;8.664;2023-04-15T07:55:52;9.07;;;5.90;;
13085;SDS011;6609;49.882;8.664;2023-04-15T07:58:19;6.97;;;5.03;;
13085;SDS011;6609;49.882;8.664;2023-04-15T08:00:47;8.53;;;5.27;;
13085;SDS011;6609;49.882;8.664;2023-04-15T08:03:15;8.20;;;5.30;;
13085;SDS011;6609;49.882;8.664;2023-04-15T08:05:42;10.23;;;5.93;;
13085;SDS011;6609;49.882;8.664;2023-04-15T08:08:09;14.33;;;6.17;;
13085;SDS011;6609;49.882;8.664;2023-04-15T08:10:36;14.27;;;7.27;;
13085;SDS011;6609;49.882;8.664;2023-04-15T08:13:03;9.13;;;5.53;;
13085;SDS011;6609;49.882;8.664;2023-04-15T08:15:30;11.80;;;5.87;;
13085;SDS011;6609;49.882;8.664;2023-04-15T08:17:57;9.90;;;5.97;;
13085;SDS011;6609;49.882;8.664;2023-04-15T08:20:26;10.33;;;6.03;;
13085;SDS011;6609;49.882;8.664;2023-04-15T08:22:53;8.83;;;5.83;;
13085;SDS011;6609;49.882;8.664;2023-04-15T08:27:39;35.00;;;11.50;;
13085;SDS011;6609;49.882;8.664;2023-04-15T08:30:07;13.80;;;6.10;;
13085;SDS011;6609;49.882;8.664;2023-04-15T08:32:34;10.83;;;5.73;;
13085;SDS011;6609;49.882;8.664;2023-04-15T08:35:01;9.77;;;6.17;;
13085;SDS011;6609;49.882;8.664;2023-04-15T08:37:29;16.07;;;7.40;;
13085;SDS011;6609;49.882;8.664;2023-04-15T08:39:56;13.70;;;6.73;;
13085;SDS011;6609;49.882;8.664;2023-04-15T08:42:26;11.20;;;5.63;;
13085;SDS011;6609;49.882;8.664;2023-04-15T08:44:57;9.63;;;4.87;;
13085;SDS011;6609;49.882;8.664;2023-04-15T08:47:27;7.60;;;4.50;;
13085;SDS011;6609;49.882;8.664;2023-04-15T08:49:55;7.83;;;4.70;;
13085;SDS011;6609;49.882;8.664;2023-04-15T08:52:23;6.23;;;4.43;;
13085;SDS011;6609;49.882;8.664;2023-04-15T08:54:50;9.30;;;5.03;;
13085;SDS011;6609;49.882;8.664;2023-04-15T08:57:18;8.57;;;4.80;;
13085;SDS011;6609;49.882;8.664;2023-04-15T08:59:45;10.53;;;3.43;;
13085;SDS011;6609;49.882;8.664;2023-04-15T09:02:14;4.83;;;3.30;;
13085;SDS011;6609;49.882;8.664;2023-04-15T09:04:42;8.80;;;3.83;;
13085;SDS011;6609;49.882;8.664;2023-04-15T09:07:09;6.17;;;3.57;;
13085;SDS011;6609;49.882;8.664;2023-04-15T09:09:36;7.53;;;3.77;;
13085;SDS011;6609;49.882;8.664;2023-04-15T09:12:04;9.60;;;3.77;;
13085;SDS011;6609;49.882;8.664;2023-04-15T09:14:31;9.63;;;3.53;;
13085;SDS011;6609;49.882;8.664;2023-04-15T09:16:59;8.23;;;4.20;;
13085;SDS011;6609;49.882;8.664;2023-04-15T09:19:28;5.47;;;2.90;;
13085;SDS011;6609;49.882;8.664;2023-04-15T09:21:55;7.33;;;3.47;;
13085;SDS011;6609;49.882;8.664;2023-04-15T09:24:23;6.20;;;3.20;;
13085;SDS011;6609;49.882;8.664;2023-04-15T09:26:51;6.93;;;3.27;;
13085;SDS011;6609;49.882;8.664;2023-04-15T09:29:19;4.20;;;2.90;;
13085;SDS011;6609;49.882;8.664;2023-04-15T09:31:49;4.87;;;2.47;;
13085;SDS011;6609;49.882;8.664;2023-04-15T09:34:16;5.90;;;2.40;;
13085;SDS011;6609;49.882;8.664;2023-04-15T09:36:54;6.73;;;3.03;;
13085;SDS011;6609;49.882;8.664;2023-04-15T09:39:21;6.57;;;2.97;;
13085;SDS011;6609;49.882;8.664;2023-04-15T09:42:02;5.03;;;2.43;;
13085;SDS011;6609;49.882;8.664;2023-04-15T09:44:30;7.30;;;3.20;;
13085;SDS011;6609;49.882;8.664;2023-04-15T09:46:57;4.77;;;2.43;;
13085;SDS011;6609;49.882;8.664;2023-04-15T09:49:24;4.17;;;2.50;;
13085;SDS011;6609;49.882;8.664;2023-04-15T09:51:57;4.10;;;2.30;;
13085;SDS011;6609;49.882;8.664;2023-04-15T09:54:31;3.63;;;2.00;;
13085;SDS011;6609;49.882;8.664;2023-04-15T09:57:03;5.63;;;2.43;;
13085;SDS011;6609;49.882;8.664;2023-04-15T09:59:30;4.27;;;2.00;;
13085;SDS011;6609;49.882;8.664;2023-04-15T10:01:57;3.57;;;2.03;;
13085;SDS011;6609;49.882;8.664;2023-04-15T10:04:25;6.93;;;2.77;;
13085;SDS011;6609;49.882;8.664;2023-04-15T10:06:53;6.77;;;2.83;;
13085;SDS011;6609;49.882;8.664;2023-04-15T10:09:22;6.03;;;2.80;;
13085;SDS011;6609;49.882;8.664;2023-04-15T10:11:49;7.00;;;3.10;;
13085;SDS011;6609;49.882;8.664;2023-04-15T10:14:17;8.33;;;2.57;;
13085;SDS011;6609;49.882;8.664;2023-04-15T10:16:44;7.57;;;2.90;;
13085;SDS011;6609;49.882;8.664;2023-04-15T10:19:13;5.57;;;2.73;;
13085;SDS011;6609;49.882;8.664;2023-04-15T10:21:44;5.30;;;2.20;;
13085;SDS011;6609;49.882;8.664;2023-04-15T10:24:12;4.67;;;2.53;;
13085;SDS011;6609;49.882;8.664;2023-04-15T10:26:41;4.60;;;2.47;;
13085;SDS011;6609;49.882;8.664;2023-04-15T10:29:09;4.53;;;2.03;;
13085;SDS011;6609;49.882;8.664;2023-04-15T10:31:36;6.97;;;2.57;;
13085;SDS011;6609;49.882;8.664;2023-04-15T10:34:04;2.63;;;1.90;;
13085;SDS011;6609;49.882;8.664;2023-04-15T10:36:32;4.03;;;2.30;;
13085;SDS011;6609;49.882;8.664;2023-04-15T10:38:58;6.40;;;2.93;;
13085;SDS011;6609;49.882;8.664;2023-04-15T10:41:26;5.80;;;2.50;;
13085;SDS011;6609;49.882;8.664;2023-04-15T10:44:01;4.87;;;2.43;;
13085;SDS011;6609;49.882;8.664;2023-04-15T10:46:34;5.07;;;2.40;;
13085;SDS011;6609;49.882;8.664;2023-04-15T10:49:05;5.43;;;2.17;;
13085;SDS011;6609;49.882;8.664;2023-04-15T10:51:35;6.23;;;2.10;;
13085;SDS011;6609;49.882;8.664;2023-04-15T10:54:08;6.03;;;2.70;;
13085;SDS011;6609;49.882;8.664;2023-04-15T10:56:39;3.60;;;1.83;;
13085;SDS011;6609;49.882;8.664;2023-04-15T10:59:08;4.40;;;2.23;;
13085;SDS011;6609;49.882;8.664;2023-04-15T11:01:50;5.63;;;2.13;;
13085;SDS011;6609;49.882;8.664;2023-04-15T11:07:34;3.67;;;2.07;;
13085;SDS011;6609;49.882;8.664;2023-04-15T11:10:02;4.77;;;2.40;;
13085;SDS011;6609;49.882;8.664;2023-04-15T11:12:33;5.77;;;2.43;;
13085;SDS011;6609;49.882;8.664;2023-04-15T11:17:54;6.97;;;2.83;;
13085;SDS011;6609;49.882;8.664;2023-04-15T11:20:21;5.23;;;2.23;;
13085;SDS011;6609;49.882;8.664;2023-04-15T11:22:49;6.67;;;2.63;;
13085;SDS011;6609;49.882;8.664;2023-04-15T11:25:22;5.30;;;2.30;;
13085;SDS011;6609;49.882;8.664;2023-04-15T11:27:50;3.87;;;2.07;;
13085;SDS011;6609;49.882;8.664;2023-04-15T11:30:18;2.93;;;1.90;;
13085;SDS011;6609;49.882;8.664;2023-04-15T11:32:47;5.17;;;2.67;;
13085;SDS011;6609;49.882;8.664;2023-04-15T11:35:15;4.17;;;2.00;;
13085;SDS011;6609;49.882;8.664;2023-04-15T11:37:42;5.40;;;2.57;;
13085;SDS011;6609;49.882;8.664;2023-04-15T11:40:09;5.53;;;2.70;;
13085;SDS011;6609;49.882;8.664;2023-04-15T11:42:37;5.00;;;2.73;;
13085;SDS011;6609;49.882;8.664;2023-04-15T11:45:07;5.10;;;2.50;;
13085;SDS011;6609;49.882;8.664;2023-04-15T11:47:34;3.30;;;1.83;;
13085;SDS011;6609;49.882;8.664;2023-04-15T11:50:16;4.93;;;2.30;;
13085;SDS011;6609;49.882;8.664;2023-04-15T11:52:51;4.93;;;1.90;;
13085;SDS011;6609;49.882;8.664;2023-04-15T11:55:19;5.93;;;2.77;;
13085;SDS011;6609;49.882;8.664;2023-04-15T11:57:46;4.77;;;2.60;;
13085;SDS011;6609;49.882;8.664;2023-04-15T12:00:12;5.67;;;2.83;;
13085;SDS011;6609;49.882;8.664;2023-04-15T12:02:42;4.80;;;2.27;;
13085;SDS011;6609;49.882;8.664;2023-04-15T12:05:09;5.23;;;3.00;;
13085;SDS011;6609;49.882;8.664;2023-04-15T12:10:23;4.50;;;2.27;;
13085;SDS011;6609;49.882;8.664;2023-04-15T12:12:51;6.17;;;2.40;;
13085;SDS011;6609;49.882;8.664;2023-04-15T12:15:20;5.93;;;3.03;;
13085;SDS011;6609;49.882;8.664;2023-04-15T12:17:47;6.93;;;3.10;;
13085;SDS011;6609;49.882;8.664;2023-04-15T12:20:19;7.27;;;2.57;;
13085;SDS011;6609;49.882;8.664;2023-04-15T12:22:47;4.70;;;2.40;;
13085;SDS011;6609;49.882;8.664;2023-04-15T12:25:15;5.60;;;2.37;;
13085;SDS011;6609;49.882;8.664;2023-04-15T12:27:49;8.27;;;2.80;;
13085;SDS011;6609;49.882;8.664;2023-04-15T12:30:16;4.27;;;2.57;;
13085;SDS011;6609;49.882;8.664;2023-04-15T12:32:43;5.17;;;3.03;;
13085;SDS011;6609;49.882;8.664;2023-04-15T12:35:12;5.60;;;2.90;;
13085;SDS011;6609;49.882;8.664;2023-04-15T12:37:39;6.90;;;2.63;;
13085;SDS011;6609;49.882;8.664;2023-04-15T12:40:06;7.20;;;3.30;;
13085;SDS011;6609;49.882;8.664;2023-04-15T12:42:35;5.27;;;2.60;;
13085;SDS011;6609;49.882;8.664;2023-04-15T12:45:03;6.53;;;3.43;;
13085;SDS011;6609;49.882;8.664;2023-04-15T12:47:30;6.67;;;2.93;;
13085;SDS011;6609;49.882;8.664;2023-04-15T12:49:57;7.50;;;3.70;;
13085;SDS011;6609;49.882;8.664;2023-04-15T12:52:24;6.87;;;3.10;;
13085;SDS011;6609;49.882;8.664;2023-04-15T12:54:52;6.37;;;3.33;;
13085;SDS011;6609;49.882;8.664;2023-04-15T12:57:19;5.97;;;3.27;;
13085;SDS011;6609;49.882;8.664;2023-04-15T12:59:47;5.53;;;2.97;;
13085;SDS011;6609;49.882;8.664;2023-04-15T13:02:14;8.47;;;3.50;;
13085;SDS011;6609;49.882;8.664;2023-04-15T13:04:41;4.60;;;2.87;;
13085;SDS011;6609;49.882;8.664;2023-04-15T13:07:08;6.13;;;3.40;;
13085;SDS011;6609;49.882;8.664;2023-04-15T13:09:37;4.33;;;2.93;;
13085;SDS011;6609;49.882;8.664;2023-04-15T13:12:04;6.93;;;3.40;;
13085;SDS011;6609;49.882;8.664;2023-04-15T13:14:31;4.47;;;2.90;;
13085;SDS011;6609;49.882;8.664;2023-04-15T13:17:00;8.70;;;4.50;;
13085;SDS011;6609;49.882;8.664;2023-04-15T13:19:29;7.53;;;3.70;;
13085;SDS011;6609;49.882;8.664;2023-04-15T13:21:56;8.80;;;3.90;;
13085;SDS011;6609;49.882;8.664;2023-04-15T13:24:23;6.77;;;4.00;;
13085;SDS011;6609;49.882;8.664;2023-04-15T13:26:50;4.43;;;3.17;;
13085;SDS011;6609;49.882;8.664;2023-04-15T13:29:17;5.67;;;3.57;;
13085;SDS011;6609;49.882;8.664;2023-04-15T13:31:44;4.60;;;3.20;;
13085;SDS011;6609;49.882;8.664;2023-04-15T13:34:12;6.40;;;3.53;;
13085;SDS011;6609;49.882;8.664;2023-04-15T13:36:40;7.43;;;3.87;;
13085;SDS011;6609;49.882;8.664;2023-04-15T13:39:07;7.10;;;3.90;;
13085;SDS011;6609;49.882;8.664;2023-04-15T13:41:34;5.57;;;3.37;;
13085;SDS011;6609;49.882;8.664;2023-04-15T13:44:01;10.03;;;3.83;;
13085;SDS011;6609;49.882;8.664;2023-04-15T13:46:29;4.93;;;2.90;;
13085;SDS011;6609;49.882;8.664;2023-04-15T13:48:56;8.10;;;3.53;;
13085;SDS011;6609;49.882;8.664;2023-04-15T13:51:24;5.43;;;2.80;;
13085;SDS011;6609;49.882;8.664;2023-04-15T13:53:52;6.20;;;2.13;;
13085;SDS011;6609;49.882;8.664;2023-04-15T13:56:19;5.13;;;2.43;;
13085;SDS011;6609;49.882;8.664;2023-04-15T13:58:46;10.23;;;3.20;;
13085;SDS011;6609;49.882;8.664;2023-04-15T14:01:13;5.13;;;1.70;;
13085;SDS011;6609;49.882;8.664;2023-04-15T14:03:40;3.33;;;1.70;;
13085;SDS011;6609;49.882;8.664;2023-04-15T14:06:07;3.67;;;1.90;;
13085;SDS011;6609;49.882;8.664;2023-04-15T14:08:36;3.17;;;1.53;;
13085;SDS011;6609;49.882;8.664;2023-04-15T14:11:02;4.07;;;2.27;;
13085;SDS011;6609;49.882;8.664;2023-04-15T14:13:30;3.70;;;2.00;;
13085;SDS011;6609;49.882;8.664;2023-04-15T14:15:57;4.43;;;2.13;;
13085;SDS011;6609;49.882;8.664;2023-04-15T14:18:24;4.40;;;2.03;;
13085;SDS011;6609;49.882;8.664;2023-04-15T14:20:51;6.00;;;2.27;;
13085;SDS011;6609;49.882;8.664;2023-04-15T14:23:18;4.50;;;2.30;;
13085;SDS011;6609;49.882;8.664;2023-04-15T14:25:46;4.17;;;1.90;;
13085;SDS011;6609;49.882;8.664;2023-04-15T14:28:14;5.77;;;2.10;;
13085;SDS011;6609;49.882;8.664;2023-04-15T14:30:40;5.17;;;1.97;;
13085;SDS011;6609;49.882;8.664;2023-04-15T14:33:08;4.10;;;2.00;;
13085;SDS011;6609;49.882;8.664;2023-04-15T14:35:35;2.87;;;1.50;;
13085;SDS011;6609;49.882;8.664;2023-04-15T14:38:02;5.83;;;2.13;;
13085;SDS011;6609;49.882;8.664;2023-04-15T14:40:29;3.47;;;1.87;;
13085;SDS011;6609;49.882;8.664;2023-04-15T14:42:58;4.73;;;2.17;;
13085;SDS011;6609;49.882;8.664;2023-04-15T14:45:25;4.13;;;2.00;;
13085;SDS011;6609;49.882;8.664;2023-04-15T14:47:52;4.13;;;2.00;;
13085;SDS011;6609;49.882;8.664;2023-04-15T14:50:20;5.43;;;2.03;;
13085;SDS011;6609;49.882;8.664;2023-04-15T14:52:46;3.33;;;1.63;;
13085;SDS011;6609;49.882;8.664;2023-04-15T14:55:13;5.17;;;2.03;;
13085;SDS011;6609;49.882;8.664;2023-04-15T14:57:41;3.20;;;1.60;;
13085;SDS011;6609;49.882;8.664;2023-04-15T15:00:10;8.40;;;2.47;;
13085;SDS011;6609;49.882;8.664;2023-04-15T15:02:37;4.30;;;1.80;;
13085;SDS011;6609;49.882;8.664;2023-04-15T15:05:04;6.23;;;2.50;;
13085;SDS011;6609;49.882;8.664;2023-04-15T15:07:31;4.87;;;2.13;;
13085;SDS011;6609;49.882;8.664;2023-04-15T15:10:00;4.30;;;1.90;;